sensor_id;sensor_type;location;lat;lon;timestamp;temperature;humidity
73955;DHT22;62306;52.516;13.290;2023-05-14T00:00:49;15.30;73.00
73955;DHT22;62306;52.516;13.290;2023-05-14T00:03:16;15.30;74.80
73955;DHT22;62306;52.516;13.290;2023-05-14T00:05:44;15.40;75.80
73955;DHT22;62306;52.516;13.290;2023-05-14T00:08:11;15.40;76.10
73955;DHT22;62306;52.516;13.290;2023-05-14T00:10:38;15.50;76.40
73955;DHT22;62306;52.516;13.290;2023-05-14T00:13:05;15.50;76.70
73955;DHT22;62306;52.516;13.290;2023-05-14T00:15:32;15.50;76.90
73955;DHT22;62306;52.516;13.290;2023-05-14T00:17:59;15.40;76.40
73955;DHT22;62306;52.516;13.290;2023-05-14T00:20:25;15.40;76.90
73955;DHT22;62306;52.516;13.290;2023-05-14T00:22:54;15.30;77.60
73955;DHT22;62306;52.516;13.290;2023-05-14T00:25:21;15.30;78.40
73955;DHT22;62306;52.516;13.290;2023-05-14T00:27:48;15.20;79.10
73955;DHT22;62306;52.516;13.290;2023-05-14T00:30:14;15.10;79.80
73955;DHT22;62306;52.516;13.290;2023-05-14T00:32:41;15.00;80.70
73955;DHT22;62306;52.516;13.290;2023-05-14T00:35:08;15.00;81.20
73955;DHT22;62306;52.516;13.290;2023-05-14T00:37:35;14.90;82.00
73955;DHT22;62306;52.516;13.290;2023-05-14T00:40:05;14.80;82.30
73955;DHT22;62306;52.516;13.290;2023-05-14T00:42:33;14.80;82.50
73955;DHT22;62306;52.516;13.290;2023-05-14T00:45:00;14.70;83.00
73955;DHT22;62306;52.516;13.290;2023-05-14T00:47:27;14.60;83.60
73955;DHT22;62306;52.516;13.290;2023-05-14T00:49:54;14.60;84.40
73955;DHT22;62306;52.516;13.290;2023-05-14T00:52:21;14.60;84.80
73955;DHT22;62306;52.516;13.290;2023-05-14T00:54:48;14.50;85.40
73955;DHT22;62306;52.516;13.290;2023-05-14T00:57:17;14.50;85.40
73955;DHT22;62306;52.516;13.290;2023-05-14T00:59:44;14.50;85.60
73955;DHT22;62306;52.516;13.290;2023-05-14T01:02:11;14.60;85.90
73955;DHT22;62306;52.516;13.290;2023-05-14T01:04:38;14.50;86.30
73955;DHT22;62306;52.516;13.290;2023-05-14T01:07:19;14.40;86.20
73955;DHT22;62306;52.516;13.290;2023-05-14T01:09:53;14.40;86.20
73955;DHT22;62306;52.516;13.290;2023-05-14T01:12:28;14.40;86.60
73955;DHT22;62306;52.516;13.290;2023-05-14T01:15:06;14.40;86.50
73955;DHT22;62306;52.516;13.290;2023-05-14T01:17:41;14.40;87.30
73955;DHT22;62306;52.516;13.290;2023-05-14T01:20:09;14.40;86.80
73955;DHT22;62306;52.516;13.290;2023-05-14T01:22:38;14.30;87.10
73955;DHT22;62306;52.516;13.290;2023-05-14T01:25:06;14.20;88.10
73955;DHT22;62306;52.516;13.290;2023-05-14T01:27:37;14.20;87.90
73955;DHT22;62306;52.516;13.290;2023-05-14T01:30:12;14.20;88.00
73955;DHT22;62306;52.516;13.290;2023-05-14T01:32:40;14.20;88.20
73955;DHT22;62306;52.516;13.290;2023-05-14T01:35:09;14.10;88.30
73955;DHT22;62306;52.516;13.290;2023-05-14T01:37:38;14.20;88.50
73955;DHT22;62306;52.516;13.290;2023-05-14T01:40:07;14.10;89.00
73955;DHT22;62306;52.516;13.290;2023-05-14T01:42:36;14.00;89.50
73955;DHT22;62306;52.516;13.290;2023-05-14T01:45:03;14.10;89.20
73955;DHT22;62306;52.516;13.290;2023-05-14T01:47:30;14.00;89.10
73955;DHT22;62306;52.516;13.290;2023-05-14T01:49:57;14.00;89.30
73955;DHT22;62306;52.516;13.290;2023-05-14T01:52:24;14.10;89.50
73955;DHT22;62306;52.516;13.290;2023-05-14T01:54:52;14.20;89.10
73955;DHT22;62306;52.516;13.290;2023-05-14T01:57:19;14.10;89.20
73955;DHT22;62306;52.516;13.290;2023-05-14T01:59:46;14.10;89.30
73955;DHT22;62306;52.516;13.290;2023-05-14T02:02:13;14.00;89.80
73955;DHT22;62306;52.516;13.290;2023-05-14T02:04:49;14.00;89.80
73955;DHT22;62306;52.516;13.290;2023-05-14T02:07:19;13.90;90.10
73955;DHT22;62306;52.516;13.290;2023-05-14T02:09:48;13.90;90.00
73955;DHT22;62306;52.516;13.290;2023-05-14T02:12:17;14.00;90.10
73955;DHT22;62306;52.516;13.290;2023-05-14T02:14:45;14.00;90.00
73955;DHT22;62306;52.516;13.290;2023-05-14T02:17:13;14.10;89.90
73955;DHT22;62306;52.516;13.290;2023-05-14T02:19:42;14.10;89.30
73955;DHT22;62306;52.516;13.290;2023-05-14T02:22:10;14.20;89.10
73955;DHT22;62306;52.516;13.290;2023-05-14T02:24:38;14.20;89.10
73955;DHT22;62306;52.516;13.290;2023-05-14T02:27:05;14.20;89.10
73955;DHT22;62306;52.516;13.290;2023-05-14T02:29:40;14.30;89.10
73955;DHT22;62306;52.516;13.290;2023-05-14T02:32:28;14.30;88.90
73955;DHT22;62306;52.516;13.290;2023-05-14T02:35:02;14.40;88.70
73955;DHT22;62306;52.516;13.290;2023-05-14T02:37:32;14.40;88.90
73955;DHT22;62306;52.516;13.290;2023-05-14T02:40:01;14.40;89.10
73955;DHT22;62306;52.516;13.290;2023-05-14T02:42:30;14.30;89.40
73955;DHT22;62306;52.516;13.290;2023-05-14T02:45:13;14.30;89.60
73955;DHT22;62306;52.516;13.290;2023-05-14T02:47:47;14.30;89.50
73955;DHT22;62306;52.516;13.290;2023-05-14T02:50:23;14.20;89.50
73955;DHT22;62306;52.516;13.290;2023-05-14T02:52:51;14.20;89.60
73955;DHT22;62306;52.516;13.290;2023-05-14T02:55:20;14.30;89.40
73955;DHT22;62306;52.516;13.290;2023-05-14T02:57:48;14.20;89.30
73955;DHT22;62306;52.516;13.290;2023-05-14T03:00:24;14.30;89.20
73955;DHT22;62306;52.516;13.290;2023-05-14T03:02:55;14.10;89.00
73955;DHT22;62306;52.516;13.290;2023-05-14T03:05:32;14.30;89.00
73955;DHT22;62306;52.516;13.290;2023-05-14T03:08:03;14.40;89.00
73955;DHT22;62306;52.516;13.290;2023-05-14T03:10:40;14.30;88.80
73955;DHT22;62306;52.516;13.290;2023-05-14T03:13:08;14.40;88.80
73955;DHT22;62306;52.516;13.290;2023-05-14T03:15:38;14.40;88.40
73955;DHT22;62306;52.516;13.290;2023-05-14T03:18:07;14.50;87.80
73955;DHT22;62306;52.516;13.290;2023-05-14T03:20:38;14.50;87.80
73955;DHT22;62306;52.516;13.290;2023-05-14T03:23:10;14.50;87.60
73955;DHT22;62306;52.516;13.290;2023-05-14T03:25:46;14.50;87.70
73955;DHT22;62306;52.516;13.290;2023-05-14T03:28:17;14.50;87.60
73955;DHT22;62306;52.516;13.290;2023-05-14T03:30:46;14.60;87.10
73955;DHT22;62306;52.516;13.290;2023-05-14T03:33:13;14.70;87.40
73955;DHT22;62306;52.516;13.290;2023-05-14T03:35:40;14.70;87.50
73955;DHT22;62306;52.516;13.290;2023-05-14T03:38:07;14.60;87.20
73955;DHT22;62306;52.516;13.290;2023-05-14T03:40:34;14.50;87.20
73955;DHT22;62306;52.516;13.290;2023-05-14T03:43:01;14.50;86.80
73955;DHT22;62306;52.516;13.290;2023-05-14T03:45:27;14.60;86.30
73955;DHT22;62306;52.516;13.290;2023-05-14T03:47:56;14.60;86.80
73955;DHT22;62306;52.516;13.290;2023-05-14T03:50:23;14.70;86.90
73955;DHT22;62306;52.516;13.290;2023-05-14T03:52:50;14.70;86.20
73955;DHT22;62306;52.516;13.290;2023-05-14T03:55:18;14.70;86.10
73955;DHT22;62306;52.516;13.290;2023-05-14T03:57:45;14.70;86.30
73955;DHT22;62306;52.516;13.290;2023-05-14T04:00:12;15.40;86.50
73955;DHT22;62306;52.516;13.290;2023-05-14T04:02:39;14.80;85.50
73955;DHT22;62306;52.516;13.290;2023-05-14T04:05:08;14.70;83.10
73955;DHT22;62306;52.516;13.290;2023-05-14T04:07:35;14.80;80.60
73955;DHT22;62306;52.516;13.290;2023-05-14T04:10:02;14.80;78.00
73955;DHT22;62306;52.516;13.290;2023-05-14T04:12:29;14.80;75.80
73955;DHT22;62306;52.516;13.290;2023-05-14T04:14:56;14.90;75.80
73955;DHT22;62306;52.516;13.290;2023-05-14T04:17:23;14.90;74.90
73955;DHT22;62306;52.516;13.290;2023-05-14T04:19:50;15.00;74.80
73955;DHT22;62306;52.516;13.290;2023-05-14T04:22:18;15.00;74.10
73955;DHT22;62306;52.516;13.290;2023-05-14T04:24:45;15.10;74.10
73955;DHT22;62306;52.516;13.290;2023-05-14T04:27:13;15.10;73.00
73955;DHT22;62306;52.516;13.290;2023-05-14T04:29:40;15.20;72.40
73955;DHT22;62306;52.516;13.290;2023-05-14T04:32:07;15.30;71.90
73955;DHT22;62306;52.516;13.290;2023-05-14T04:34:34;15.40;70.90
73955;DHT22;62306;52.516;13.290;2023-05-14T04:37:01;15.40;70.30
73955;DHT22;62306;52.516;13.290;2023-05-14T04:39:30;15.50;73.10
73955;DHT22;62306;52.516;13.290;2023-05-14T04:41:56;15.60;74.30
73955;DHT22;62306;52.516;13.290;2023-05-14T04:44:23;15.70;72.30
73955;DHT22;62306;52.516;13.290;2023-05-14T04:46:50;15.80;72.30
73955;DHT22;62306;52.516;13.290;2023-05-14T04:49:17;15.90;71.20
73955;DHT22;62306;52.516;13.290;2023-05-14T04:51:45;16.00;70.60
73955;DHT22;62306;52.516;13.290;2023-05-14T04:54:12;16.20;69.80
73955;DHT22;62306;52.516;13.290;2023-05-14T04:56:41;16.60;69.10
73955;DHT22;62306;52.516;13.290;2023-05-14T04:59:07;16.70;66.90
73955;DHT22;62306;52.516;13.290;2023-05-14T05:01:34;16.80;67.70
73955;DHT22;62306;52.516;13.290;2023-05-14T05:04:01;16.80;65.90
73955;DHT22;62306;52.516;13.290;2023-05-14T05:06:28;16.90;65.90
73955;DHT22;62306;52.516;13.290;2023-05-14T05:08:56;17.10;66.50
73955;DHT22;62306;52.516;13.290;2023-05-14T05:11:22;17.30;62.80
73955;DHT22;62306;52.516;13.290;2023-05-14T05:13:51;17.50;62.60
73955;DHT22;62306;52.516;13.290;2023-05-14T05:16:18;17.90;60.90
73955;DHT22;62306;52.516;13.290;2023-05-14T05:18:44;17.50;60.00
73955;DHT22;62306;52.516;13.290;2023-05-14T05:21:11;19.20;56.80
73955;DHT22;62306;52.516;13.290;2023-05-14T05:23:38;21.10;52.30
73955;DHT22;62306;52.516;13.290;2023-05-14T05:26:05;22.90;47.00
73955;DHT22;62306;52.516;13.290;2023-05-14T05:28:32;23.30;43.80
73955;DHT22;62306;52.516;13.290;2023-05-14T05:31:00;21.20;46.90
73955;DHT22;62306;52.516;13.290;2023-05-14T05:33:27;20.80;49.00
73955;DHT22;62306;52.516;13.290;2023-05-14T05:35:54;20.60;48.50
73955;DHT22;62306;52.516;13.290;2023-05-14T05:38:21;20.50;49.20
73955;DHT22;62306;52.516;13.290;2023-05-14T05:40:48;21.50;48.00
73955;DHT22;62306;52.516;13.290;2023-05-14T05:43:15;22.40;46.80
73955;DHT22;62306;52.516;13.290;2023-05-14T05:45:42;23.80;43.20
73955;DHT22;62306;52.516;13.290;2023-05-14T05:48:11;23.60;42.10
73955;DHT22;62306;52.516;13.290;2023-05-14T05:50:38;24.40;41.10
73955;DHT22;62306;52.516;13.290;2023-05-14T05:53:05;25.00;39.90
73955;DHT22;62306;52.516;13.290;2023-05-14T05:55:32;25.10;39.10
73955;DHT22;62306;52.516;13.290;2023-05-14T05:57:59;23.70;40.50
73955;DHT22;62306;52.516;13.290;2023-05-14T06:00:26;23.40;41.30
73955;DHT22;62306;52.516;13.290;2023-05-14T06:02:53;22.80;42.90
73955;DHT22;62306;52.516;13.290;2023-05-14T06:05:22;22.40;43.20
73955;DHT22;62306;52.516;13.290;2023-05-14T06:07:49;21.60;44.10
73955;DHT22;62306;52.516;13.290;2023-05-14T06:10:16;21.10;45.40
73955;DHT22;62306;52.516;13.290;2023-05-14T06:12:43;20.70;46.60
73955;DHT22;62306;52.516;13.290;2023-05-14T06:15:11;20.60;47.60
73955;DHT22;62306;52.516;13.290;2023-05-14T06:17:38;20.80;48.20
73955;DHT22;62306;52.516;13.290;2023-05-14T06:20:06;21.50;46.60
73955;DHT22;62306;52.516;13.290;2023-05-14T06:22:35;22.10;45.20
73955;DHT22;62306;52.516;13.290;2023-05-14T06:25:02;22.40;44.80
73955;DHT22;62306;52.516;13.290;2023-05-14T06:27:29;22.30;44.00
73955;DHT22;62306;52.516;13.290;2023-05-14T06:29:56;21.70;45.00
73955;DHT22;62306;52.516;13.290;2023-05-14T06:32:23;21.40;46.30
73955;DHT22;62306;52.516;13.290;2023-05-14T06:34:49;20.90;46.90
73955;DHT22;62306;52.516;13.290;2023-05-14T06:37:16;20.30;47.30
73955;DHT22;62306;52.516;13.290;2023-05-14T06:39:45;19.70;48.50
73955;DHT22;62306;52.516;13.290;2023-05-14T06:42:14;19.10;50.50
73955;DHT22;62306;52.516;13.290;2023-05-14T06:44:41;18.90;51.40
73955;DHT22;62306;52.516;13.290;2023-05-14T06:47:08;18.80;51.70
73955;DHT22;62306;52.516;13.290;2023-05-14T06:49:35;18.70;51.30
73955;DHT22;62306;52.516;13.290;2023-05-14T06:52:03;18.70;51.90
73955;DHT22;62306;52.516;13.290;2023-05-14T06:54:30;18.70;50.90
73955;DHT22;62306;52.516;13.290;2023-05-14T06:56:58;18.90;51.80
73955;DHT22;62306;52.516;13.290;2023-05-14T06:59:25;19.00;51.30
73955;DHT22;62306;52.516;13.290;2023-05-14T07:01:52;18.90;51.30
73955;DHT22;62306;52.516;13.290;2023-05-14T07:04:18;18.70;50.90
73955;DHT22;62306;52.516;13.290;2023-05-14T07:06:45;18.70;51.70
73955;DHT22;62306;52.516;13.290;2023-05-14T07:09:12;18.70;51.10
73955;DHT22;62306;52.516;13.290;2023-05-14T07:11:39;18.30;52.80
73955;DHT22;62306;52.516;13.290;2023-05-14T07:14:07;18.40;52.70
73955;DHT22;62306;52.516;13.290;2023-05-14T07:16:35;18.70;52.10
73955;DHT22;62306;52.516;13.290;2023-05-14T07:19:02;18.90;51.50
73955;DHT22;62306;52.516;13.290;2023-05-14T07:21:28;18.90;51.40
73955;DHT22;62306;52.516;13.290;2023-05-14T07:23:56;19.00;51.30
73955;DHT22;62306;52.516;13.290;2023-05-14T07:26:23;19.20;51.70
73955;DHT22;62306;52.516;13.290;2023-05-14T07:28:50;19.40;51.40
73955;DHT22;62306;52.516;13.290;2023-05-14T07:31:19;19.40;50.70
73955;DHT22;62306;52.516;13.290;2023-05-14T07:33:46;19.00;52.30
73955;DHT22;62306;52.516;13.290;2023-05-14T07:36:13;18.80;51.60
73955;DHT22;62306;52.516;13.290;2023-05-14T07:38:40;19.10;51.70
73955;DHT22;62306;52.516;13.290;2023-05-14T07:41:07;19.30;52.00
73955;DHT22;62306;52.516;13.290;2023-05-14T07:43:35;19.50;51.60
73955;DHT22;62306;52.516;13.290;2023-05-14T07:46:04;19.70;50.90
73955;DHT22;62306;52.516;13.290;2023-05-14T07:48:33;20.00;50.30
73955;DHT22;62306;52.516;13.290;2023-05-14T07:51:00;20.20;49.70
73955;DHT22;62306;52.516;13.290;2023-05-14T07:53:27;20.60;49.30
73955;DHT22;62306;52.516;13.290;2023-05-14T07:55:54;20.90;48.70
73955;DHT22;62306;52.516;13.290;2023-05-14T07:58:20;21.20;47.50
73955;DHT22;62306;52.516;13.290;2023-05-14T08:00:48;21.20;47.60
73955;DHT22;62306;52.516;13.290;2023-05-14T08:03:14;21.30;47.50
73955;DHT22;62306;52.516;13.290;2023-05-14T08:05:43;21.50;46.80
73955;DHT22;62306;52.516;13.290;2023-05-14T08:08:10;21.70;46.50
73955;DHT22;62306;52.516;13.290;2023-05-14T08:10:37;21.40;45.80
73955;DHT22;62306;52.516;13.290;2023-05-14T08:13:04;21.50;46.80
73955;DHT22;62306;52.516;13.290;2023-05-14T08:15:31;22.10;44.90
73955;DHT22;62306;52.516;13.290;2023-05-14T08:17:58;22.10;45.30
73955;DHT22;62306;52.516;13.290;2023-05-14T08:20:28;22.00;44.10
73955;DHT22;62306;52.516;13.290;2023-05-14T08:22:57;22.50;43.70
73955;DHT22;62306;52.516;13.290;2023-05-14T08:25:24;22.50;44.30
73955;DHT22;62306;52.516;13.290;2023-05-14T08:27:51;22.60;44.00
73955;DHT22;62306;52.516;13.290;2023-05-14T08:30:19;22.40;44.20
73955;DHT22;62306;52.516;13.290;2023-05-14T08:32:46;22.30;43.90
73955;DHT22;62306;52.516;13.290;2023-05-14T08:35:13;21.50;44.60
73955;DHT22;62306;52.516;13.290;2023-05-14T08:37:40;21.10;44.40
73955;DHT22;62306;52.516;13.290;2023-05-14T08:40:09;21.30;45.20
73955;DHT22;62306;52.516;13.290;2023-05-14T08:42:38;21.50;44.80
73955;DHT22;62306;52.516;13.290;2023-05-14T08:45:09;22.00;44.00
73955;DHT22;62306;52.516;13.290;2023-05-14T08:47:37;22.40;43.30
73955;DHT22;62306;52.516;13.290;2023-05-14T08:50:05;22.50;42.80
73955;DHT22;62306;52.516;13.290;2023-05-14T08:52:33;22.80;42.20
73955;DHT22;62306;52.516;13.290;2023-05-14T08:55:02;23.00;41.70
73955;DHT22;62306;52.516;13.290;2023-05-14T08:57:32;22.60;42.20
73955;DHT22;62306;52.516;13.290;2023-05-14T09:00:00;21.50;42.70
73955;DHT22;62306;52.516;13.290;2023-05-14T09:02:28;21.00;44.50
73955;DHT22;62306;52.516;13.290;2023-05-14T09:04:57;21.40;44.70
73955;DHT22;62306;52.516;13.290;2023-05-14T09:07:24;21.90;43.80
73955;DHT22;62306;52.516;13.290;2023-05-14T09:09:52;21.90;42.90
73955;DHT22;62306;52.516;13.290;2023-05-14T09:12:19;22.10;42.60
73955;DHT22;62306;52.516;13.290;2023-05-14T09:14:48;22.30;42.70
73955;DHT22;62306;52.516;13.290;2023-05-14T09:17:16;22.60;41.70
73955;DHT22;62306;52.516;13.290;2023-05-14T09:19:44;22.90;41.60
73955;DHT22;62306;52.516;13.290;2023-05-14T09:22:13;23.20;40.80
73955;DHT22;62306;52.516;13.290;2023-05-14T09:24:40;23.50;40.80
73955;DHT22;62306;52.516;13.290;2023-05-14T09:27:09;23.20;40.50
73955;DHT22;62306;52.516;13.290;2023-05-14T09:29:36;23.40;39.90
73955;DHT22;62306;52.516;13.290;2023-05-14T09:32:04;23.20;39.90
73955;DHT22;62306;52.516;13.290;2023-05-14T09:34:33;23.00;40.70
73955;DHT22;62306;52.516;13.290;2023-05-14T09:37:04;23.00;40.80
73955;DHT22;62306;52.516;13.290;2023-05-14T09:39:32;22.90;40.70
73955;DHT22;62306;52.516;13.290;2023-05-14T09:41:59;22.70;41.10
73955;DHT22;62306;52.516;13.290;2023-05-14T09:44:26;22.80;41.10
73955;DHT22;62306;52.516;13.290;2023-05-14T09:46:54;22.70;39.50
73955;DHT22;62306;52.516;13.290;2023-05-14T09:49:22;22.40;39.90
73955;DHT22;62306;52.516;13.290;2023-05-14T09:51:49;21.80;40.60
73955;DHT22;62306;52.516;13.290;2023-05-14T09:54:16;22.00;40.60
73955;DHT22;62306;52.516;13.290;2023-05-14T09:56:43;22.30;41.00
73955;DHT22;62306;52.516;13.290;2023-05-14T09:59:10;22.10;40.90
73955;DHT22;62306;52.516;13.290;2023-05-14T10:01:37;22.00;41.80
73955;DHT22;62306;52.516;13.290;2023-05-14T10:04:06;22.00;41.40
73955;DHT22;62306;52.516;13.290;2023-05-14T10:06:37;21.70;41.80
73955;DHT22;62306;52.516;13.290;2023-05-14T10:09:09;21.80;42.10
73955;DHT22;62306;52.516;13.290;2023-05-14T10:11:41;21.70;42.00
73955;DHT22;62306;52.516;13.290;2023-05-14T10:14:12;21.70;42.40
73955;DHT22;62306;52.516;13.290;2023-05-14T10:16:45;21.60;42.00
73955;DHT22;62306;52.516;13.290;2023-05-14T10:19:14;21.40;41.80
73955;DHT22;62306;52.516;13.290;2023-05-14T10:21:44;21.00;42.90
73955;DHT22;62306;52.516;13.290;2023-05-14T10:24:13;20.80;43.40
73955;DHT22;62306;52.516;13.290;2023-05-14T10:26:40;20.80;43.70
73955;DHT22;62306;52.516;13.290;2023-05-14T10:29:09;20.70;43.90
73955;DHT22;62306;52.516;13.290;2023-05-14T10:31:46;20.70;43.20
73955;DHT22;62306;52.516;13.290;2023-05-14T10:34:34;20.80;43.80
73955;DHT22;62306;52.516;13.290;2023-05-14T10:37:05;20.70;43.30
73955;DHT22;62306;52.516;13.290;2023-05-14T10:39:43;20.80;43.40
73955;DHT22;62306;52.516;13.290;2023-05-14T10:42:12;20.60;44.00
73955;DHT22;62306;52.516;13.290;2023-05-14T10:44:47;20.50;44.90
73955;DHT22;62306;52.516;13.290;2023-05-14T10:47:15;20.60;45.00
73955;DHT22;62306;52.516;13.290;2023-05-14T10:49:44;20.90;44.10
73955;DHT22;62306;52.516;13.290;2023-05-14T10:52:16;21.20;43.20
73955;DHT22;62306;52.516;13.290;2023-05-14T10:54:52;21.20;42.40
73955;DHT22;62306;52.516;13.290;2023-05-14T10:57:20;21.10;42.70
73955;DHT22;62306;52.516;13.290;2023-05-14T10:59:53;21.00;43.10
73955;DHT22;62306;52.516;13.290;2023-05-14T11:02:23;21.10;42.80
73955;DHT22;62306;52.516;13.290;2023-05-14T11:04:56;21.10;42.70
73955;DHT22;62306;52.516;13.290;2023-05-14T11:07:27;21.20;42.70
73955;DHT22;62306;52.516;13.290;2023-05-14T11:10:02;21.30;42.50
73955;DHT22;62306;52.516;13.290;2023-05-14T11:12:31;21.40;42.20
73955;DHT22;62306;52.516;13.290;2023-05-14T11:14:59;21.40;42.50
73955;DHT22;62306;52.516;13.290;2023-05-14T11:17:29;21.40;42.70
73955;DHT22;62306;52.516;13.290;2023-05-14T11:19:57;21.30;43.10
73955;DHT22;62306;52.516;13.290;2023-05-14T11:22:26;21.20;43.50
73955;DHT22;62306;52.516;13.290;2023-05-14T11:24:54;21.00;43.80
73955;DHT22;62306;52.516;13.290;2023-05-14T11:27:24;20.70;44.70
73955;DHT22;62306;52.516;13.290;2023-05-14T11:29:51;20.60;45.20
73955;DHT22;62306;52.516;13.290;2023-05-14T11:32:26;20.60;45.00
73955;DHT22;62306;52.516;13.290;2023-05-14T11:34:53;20.70;44.30
73955;DHT22;62306;52.516;13.290;2023-05-14T11:37:21;20.90;44.20
73955;DHT22;62306;52.516;13.290;2023-05-14T11:39:53;20.80;43.30
73955;DHT22;62306;52.516;13.290;2023-05-14T11:42:21;20.70;44.40
73955;DHT22;62306;52.516;13.290;2023-05-14T11:44:51;20.70;44.00
73955;DHT22;62306;52.516;13.290;2023-05-14T11:47:22;20.90;44.10
73955;DHT22;62306;52.516;13.290;2023-05-14T11:49:49;21.00;44.00
73955;DHT22;62306;52.516;13.290;2023-05-14T11:52:17;21.20;43.90
73955;DHT22;62306;52.516;13.290;2023-05-14T11:54:46;21.40;43.10
73955;DHT22;62306;52.516;13.290;2023-05-14T11:57:18;21.60;43.00
73955;DHT22;62306;52.516;13.290;2023-05-14T11:59:46;21.70;42.80
73955;DHT22;62306;52.516;13.290;2023-05-14T12:02:14;21.70;42.70
73955;DHT22;62306;52.516;13.290;2023-05-14T12:04:43;21.60;43.00
73955;DHT22;62306;52.516;13.290;2023-05-14T12:07:11;21.50;43.30
73955;DHT22;62306;52.516;13.290;2023-05-14T12:09:41;21.30;43.50
73955;DHT22;62306;52.516;13.290;2023-05-14T12:12:13;21.30;44.10
73955;DHT22;62306;52.516;13.290;2023-05-14T12:14:42;21.40;43.90
73955;DHT22;62306;52.516;13.290;2023-05-14T12:17:14;21.50;43.50
73955;DHT22;62306;52.516;13.290;2023-05-14T12:19:42;21.50;43.30
73955;DHT22;62306;52.516;13.290;2023-05-14T12:22:10;21.40;43.70
73955;DHT22;62306;52.516;13.290;2023-05-14T12:24:37;21.60;44.50
73955;DHT22;62306;52.516;13.290;2023-05-14T12:27:07;21.90;43.70
73955;DHT22;62306;52.516;13.290;2023-05-14T12:29:35;22.10;43.10
73955;DHT22;62306;52.516;13.290;2023-05-14T12:32:08;22.30;43.00
73955;DHT22;62306;52.516;13.290;2023-05-14T12:34:36;22.50;42.40
73955;DHT22;62306;52.516;13.290;2023-05-14T12:37:03;22.70;41.70
73955;DHT22;62306;52.516;13.290;2023-05-14T12:39:32;22.80;42.10
73955;DHT22;62306;52.516;13.290;2023-05-14T12:41:59;23.00;42.10
73955;DHT22;62306;52.516;13.290;2023-05-14T12:44:26;23.10;41.50
73955;DHT22;62306;52.516;13.290;2023-05-14T12:46:53;23.20;41.70
73955;DHT22;62306;52.516;13.290;2023-05-14T12:49:21;23.10;41.70
73955;DHT22;62306;52.516;13.290;2023-05-14T12:51:48;23.10;41.80
73955;DHT22;62306;52.516;13.290;2023-05-14T12:54:15;23.10;41.20
73955;DHT22;62306;52.516;13.290;2023-05-14T12:56:46;23.00;41.20
73955;DHT22;62306;52.516;13.290;2023-05-14T12:59:15;22.60;41.70
73955;DHT22;62306;52.516;13.290;2023-05-14T13:01:48;22.50;42.70
73955;DHT22;62306;52.516;13.290;2023-05-14T13:04:18;22.30;42.90
73955;DHT22;62306;52.516;13.290;2023-05-14T13:06:47;22.30;42.50
73955;DHT22;62306;52.516;13.290;2023-05-14T13:09:14;22.30;42.10
73955;DHT22;62306;52.516;13.290;2023-05-14T13:11:42;21.90;41.80
73955;DHT22;62306;52.516;13.290;2023-05-14T13:14:10;21.90;41.80
73955;DHT22;62306;52.516;13.290;2023-05-14T13:16:39;22.00;42.10
73955;DHT22;62306;52.516;13.290;2023-05-14T13:19:13;22.10;40.90
73955;DHT22;62306;52.516;13.290;2023-05-14T13:21:40;21.70;41.70
73955;DHT22;62306;52.516;13.290;2023-05-14T13:24:10;21.80;42.00
73955;DHT22;62306;52.516;13.290;2023-05-14T13:26:37;21.60;42.20
73955;DHT22;62306;52.516;13.290;2023-05-14T13:29:05;21.60;42.30
73955;DHT22;62306;52.516;13.290;2023-05-14T13:31:36;21.50;41.90
73955;DHT22;62306;52.516;13.290;2023-05-14T13:34:03;21.50;41.40
73955;DHT22;62306;52.516;13.290;2023-05-14T13:36:35;21.50;41.20
73955;DHT22;62306;52.516;13.290;2023-05-14T13:39:04;21.40;42.20
73955;DHT22;62306;52.516;13.290;2023-05-14T13:41:43;21.20;42.70
73955;DHT22;62306;52.516;13.290;2023-05-14T13:44:10;21.30;42.80
73955;DHT22;62306;52.516;13.290;2023-05-14T13:46:38;21.50;42.70
73955;DHT22;62306;52.516;13.290;2023-05-14T13:49:05;21.70;41.90
73955;DHT22;62306;52.516;13.290;2023-05-14T13:51:33;21.80;41.00
73955;DHT22;62306;52.516;13.290;2023-05-14T13:54:04;21.60;41.00
73955;DHT22;62306;52.516;13.290;2023-05-14T13:56:31;21.80;41.10
73955;DHT22;62306;52.516;13.290;2023-05-14T13:59:04;21.90;40.70
73955;DHT22;62306;52.516;13.290;2023-05-14T14:01:34;22.00;40.60
73955;DHT22;62306;52.516;13.290;2023-05-14T14:04:02;21.80;41.00
73955;DHT22;62306;52.516;13.290;2023-05-14T14:06:33;21.70;41.20
73955;DHT22;62306;52.516;13.290;2023-05-14T14:09:01;21.70;41.30
73955;DHT22;62306;52.516;13.290;2023-05-14T14:11:35;21.70;41.30
73955;DHT22;62306;52.516;13.290;2023-05-14T14:14:08;21.80;41.10
73955;DHT22;62306;52.516;13.290;2023-05-14T14:16:41;21.80;41.10
73955;DHT22;62306;52.516;13.290;2023-05-14T14:19:16;21.80;40.90
73955;DHT22;62306;52.516;13.290;2023-05-14T14:21:44;21.80;41.40
73955;DHT22;62306;52.516;13.290;2023-05-14T14:24:18;21.90;40.90
73955;DHT22;62306;52.516;13.290;2023-05-14T14:27:14;21.80;40.70
73955;DHT22;62306;52.516;13.290;2023-05-14T14:29:58;21.90;40.60
73955;DHT22;62306;52.516;13.290;2023-05-14T14:32:36;22.00;40.90
73955;DHT22;62306;52.516;13.290;2023-05-14T14:35:07;22.10;40.70
73955;DHT22;62306;52.516;13.290;2023-05-14T14:37:35;22.20;40.60
73955;DHT22;62306;52.516;13.290;2023-05-14T14:40:17;22.20;40.50
73955;DHT22;62306;52.516;13.290;2023-05-14T14:42:45;22.20;40.30
73955;DHT22;62306;52.516;13.290;2023-05-14T14:45:32;22.10;41.10
73955;DHT22;62306;52.516;13.290;2023-05-14T14:48:21;21.80;41.00
73955;DHT22;62306;52.516;13.290;2023-05-14T14:50:49;21.80;41.50
73955;DHT22;62306;52.516;13.290;2023-05-14T14:53:17;21.90;40.70
73955;DHT22;62306;52.516;13.290;2023-05-14T14:55:44;21.80;40.30
73955;DHT22;62306;52.516;13.290;2023-05-14T14:58:11;21.70;40.70
73955;DHT22;62306;52.516;13.290;2023-05-14T15:00:39;21.80;40.20
73955;DHT22;62306;52.516;13.290;2023-05-14T15:03:06;21.80;40.30
73955;DHT22;62306;52.516;13.290;2023-05-14T15:05:34;21.80;40.20
73955;DHT22;62306;52.516;13.290;2023-05-14T15:08:01;21.90;40.10
73955;DHT22;62306;52.516;13.290;2023-05-14T15:10:30;21.60;39.40
73955;DHT22;62306;52.516;13.290;2023-05-14T15:12:58;21.60;39.50
73955;DHT22;62306;52.516;13.290;2023-05-14T15:15:25;21.70;39.90
73955;DHT22;62306;52.516;13.290;2023-05-14T15:17:53;21.70;40.40
73955;DHT22;62306;52.516;13.290;2023-05-14T15:20:20;21.60;39.40
73955;DHT22;62306;52.516;13.290;2023-05-14T15:22:47;21.50;40.30
73955;DHT22;62306;52.516;13.290;2023-05-14T15:25:16;21.60;40.10